sensor_id;sensor_type;location;lat;lon;timestamp;temperature;humidity
13686;DHT22;6915;48.296;8.874;2023-05-03T04:08:40;2.80;99.90
13686;DHT22;6915;48.296;8.874;2023-05-03T04:36:20;3.20;99.90
13686;DHT22;6915;48.296;8.874;2023-05-03T04:38:51;3.30;99.90
13686;DHT22;6915;48.296;8.874;2023-05-03T04:41:20;3.40;99.90
13686;DHT22;6915;48.296;8.874;2023-05-03T04:43:50;3.50;99.90
13686;DHT22;6915;48.296;8.874;2023-05-03T04:46:19;3.60;99.90
13686;DHT22;6915;48.296;8.874;2023-05-03T04:48:51;3.60;99.90
13686;DHT22;6915;48.296;8.874;2023-05-03T04:51:25;3.80;99.90
13686;DHT22;6915;48.296;8.874;2023-05-03T04:53:54;3.90;99.90
13686;DHT22;6915;48.296;8.874;2023-05-03T04:56:27;3.90;99.90
13686;DHT22;6915;48.296;8.874;2023-05-03T04:58:56;4.20;99.90
13686;DHT22;6915;48.296;8.874;2023-05-03T05:01:26;4.00;99.90
13686;DHT22;6915;48.296;8.874;2023-05-03T05:03:56;4.00;99.90
13686;DHT22;6915;48.296;8.874;2023-05-03T05:06:27;4.00;99.90
13686;DHT22;6915;48.296;8.874;2023-05-03T05:08:55;4.10;99.90
13686;DHT22;6915;48.296;8.874;2023-05-03T05:11:24;4.30;99.90
13686;DHT22;6915;48.296;8.874;2023-05-03T05:13:53;4.40;99.90
13686;DHT22;6915;48.296;8.874;2023-05-03T05:16:22;4.50;99.90
13686;DHT22;6915;48.296;8.874;2023-05-03T05:18:51;4.60;99.90
13686;DHT22;6915;48.296;8.874;2023-05-03T05:21:18;4.70;99.90
13686;DHT22;6915;48.296;8.874;2023-05-03T05:23:48;4.80;99.90
13686;DHT22;6915;48.296;8.874;2023-05-03T05:26:17;4.80;99.90
13686;DHT22;6915;48.296;8.874;2023-05-03T05:28:46;5.00;99.90
13686;DHT22;6915;48.296;8.874;2023-05-03T05:31:15;5.10;99.90
13686;DHT22;6915;48.296;8.874;2023-05-03T05:33:43;5.20;99.90
13686;DHT22;6915;48.296;8.874;2023-05-03T05:36:12;5.30;99.90
13686;DHT22;6915;48.296;8.874;2023-05-03T05:38:42;5.40;99.90
13686;DHT22;6915;48.296;8.874;2023-05-03T05:41:12;5.50;99.90
13686;DHT22;6915;48.296;8.874;2023-05-03T05:43:44;5.80;99.90
13686;DHT22;6915;48.296;8.874;2023-05-03T05:46:13;5.70;99.90
13686;DHT22;6915;48.296;8.874;2023-05-03T05:48:43;5.80;99.90
13686;DHT22;6915;48.296;8.874;2023-05-03T05:51:12;5.90;99.90
13686;DHT22;6915;48.296;8.874;2023-05-03T05:53:40;6.00;99.90
13686;DHT22;6915;48.296;8.874;2023-05-03T05:56:09;6.00;99.90
13686;DHT22;6915;48.296;8.874;2023-05-03T05:58:40;6.20;99.90
13686;DHT22;6915;48.296;8.874;2023-05-03T06:01:09;6.30;99.90
13686;DHT22;6915;48.296;8.874;2023-05-03T06:03:38;6.30;99.90
13686;DHT22;6915;48.296;8.874;2023-05-03T06:06:07;6.40;99.90
13686;DHT22;6915;48.296;8.874;2023-05-03T06:08:36;6.50;99.90
13686;DHT22;6915;48.296;8.874;2023-05-03T06:11:05;6.70;99.90
13686;DHT22;6915;48.296;8.874;2023-05-03T06:13:34;6.80;99.90
13686;DHT22;6915;48.296;8.874;2023-05-03T06:16:07;6.90;99.90
13686;DHT22;6915;48.296;8.874;2023-05-03T06:18:36;7.10;99.90
13686;DHT22;6915;48.296;8.874;2023-05-03T06:21:07;7.30;99.90
13686;DHT22;6915;48.296;8.874;2023-05-03T06:23:37;7.30;99.90
13686;DHT22;6915;48.296;8.874;2023-05-03T06:26:07;7.50;99.90
13686;DHT22;6915;48.296;8.874;2023-05-03T06:28:36;7.60;99.90
13686;DHT22;6915;48.296;8.874;2023-05-03T06:31:06;7.70;99.90
13686;DHT22;6915;48.296;8.874;2023-05-03T06:33:35;7.70;99.90
13686;DHT22;6915;48.296;8.874;2023-05-03T06:36:05;7.70;99.90
13686;DHT22;6915;48.296;8.874;2023-05-03T06:38:35;7.80;99.90
13686;DHT22;6915;48.296;8.874;2023-05-03T06:41:04;8.00;99.90
13686;DHT22;6915;48.296;8.874;2023-05-03T06:43:33;8.00;99.90
13686;DHT22;6915;48.296;8.874;2023-05-03T06:46:02;7.90;99.90
13686;DHT22;6915;48.296;8.874;2023-05-03T06:48:33;8.00;99.90
13686;DHT22;6915;48.296;8.874;2023-05-03T06:51:02;8.00;99.90
13686;DHT22;6915;48.296;8.874;2023-05-03T06:53:32;7.90;99.90
13686;DHT22;6915;48.296;8.874;2023-05-03T06:56:01;7.80;99.90
13686;DHT22;6915;48.296;8.874;2023-05-03T06:58:30;7.80;99.90
13686;DHT22;6915;48.296;8.874;2023-05-03T07:00:59;8.00;99.90
13686;DHT22;6915;48.296;8.874;2023-05-03T07:03:29;8.00;99.90
13686;DHT22;6915;48.296;8.874;2023-05-03T07:06:00;8.00;99.90
13686;DHT22;6915;48.296;8.874;2023-05-03T07:08:30;7.80;99.90
13686;DHT22;6915;48.296;8.874;2023-05-03T07:10:59;8.00;99.90
13686;DHT22;6915;48.296;8.874;2023-05-03T10:07:22;15.00;99.90
13686;DHT22;6915;48.296;8.874;2023-05-03T10:09:53;14.80;99.90
13686;DHT22;6915;48.296;8.874;2023-05-03T10:12:23;14.90;99.90
13686;DHT22;6915;48.296;8.874;2023-05-03T10:14:54;14.80;99.90
13686;DHT22;6915;48.296;8.874;2023-05-03T10:17:27;14.70;99.90
13686;DHT22;6915;48.296;8.874;2023-05-03T10:19:59;14.80;99.90
13686;DHT22;6915;48.296;8.874;2023-05-03T10:23:09;15.10;99.90
13686;DHT22;6915;48.296;8.874;2023-05-03T10:25:39;15.10;99.90
13686;DHT22;6915;48.296;8.874;2023-05-03T10:28:08;15.40;99.90
13686;DHT22;6915;48.296;8.874;2023-05-03T10:30:38;15.30;99.90
13686;DHT22;6915;48.296;8.874;2023-05-03T10:33:27;15.10;99.90
13686;DHT22;6915;48.296;8.874;2023-05-03T10:35:56;15.10;99.90
13686;DHT22;6915;48.296;8.874;2023-05-03T10:38:28;15.40;99.90
13686;DHT22;6915;48.296;8.874;2023-05-03T10:40:58;15.60;99.90
13686;DHT22;6915;48.296;8.874;2023-05-03T10:43:45;15.60;99.90
13686;DHT22;6915;48.296;8.874;2023-05-03T10:46:35;15.50;99.90
13686;DHT22;6915;48.296;8.874;2023-05-03T10:49:18;15.50;99.90
13686;DHT22;6915;48.296;8.874;2023-05-03T10:51:48;15.50;99.90
13686;DHT22;6915;48.296;8.874;2023-05-03T10:54:18;15.70;99.90
13686;DHT22;6915;48.296;8.874;2023-05-03T10:56:53;15.90;99.90
13686;DHT22;6915;48.296;8.874;2023-05-03T10:59:23;16.10;99.90
13686;DHT22;6915;48.296;8.874;2023-05-03T11:01:54;16.30;99.90
13686;DHT22;6915;48.296;8.874;2023-05-03T11:04:38;16.40;99.90
13686;DHT22;6915;48.296;8.874;2023-05-03T11:07:11;16.30;99.90
13686;DHT22;6915;48.296;8.874;2023-05-03T11:09:49;16.20;99.90
13686;DHT22;6915;48.296;8.874;2023-05-03T11:12:18;16.20;99.90
13686;DHT22;6915;48.296;8.874;2023-05-03T11:14:47;16.10;99.90
13686;DHT22;6915;48.296;8.874;2023-05-03T11:17:17;16.20;99.90
13686;DHT22;6915;48.296;8.874;2023-05-03T11:19:47;16.60;99.90
13686;DHT22;6915;48.296;8.874;2023-05-03T11:22:17;16.60;99.90
13686;DHT22;6915;48.296;8.874;2023-05-03T11:24:46;16.60;99.90
13686;DHT22;6915;48.296;8.874;2023-05-03T11:27:24;16.70;99.90
13686;DHT22;6915;48.296;8.874;2023-05-03T11:29:53;16.90;99.90
13686;DHT22;6915;48.296;8.874;2023-05-03T11:32:25;16.80;99.90
13686;DHT22;6915;48.296;8.874;2023-05-03T11:34:54;16.80;99.90
13686;DHT22;6915;48.296;8.874;2023-05-03T11:37:23;16.80;99.90
13686;DHT22;6915;48.296;8.874;2023-05-03T11:39:52;16.80;99.90
13686;DHT22;6915;48.296;8.874;2023-05-03T11:42:22;16.70;99.90
13686;DHT22;6915;48.296;8.874;2023-05-03T11:44:53;16.90;99.90
13686;DHT22;6915;48.296;8.874;2023-05-03T11:47:24;17.00;99.90
13686;DHT22;6915;48.296;8.874;2023-05-03T11:49:54;17.00;99.90
13686;DHT22;6915;48.296;8.874;2023-05-03T11:52:25;16.80;99.90
13686;DHT22;6915;48.296;8.874;2023-05-03T11:54:54;17.20;99.90
13686;DHT22;6915;48.296;8.874;2023-05-03T11:57:26;17.40;99.90
13686;DHT22;6915;48.296;8.874;2023-05-03T11:59:55;17.10;99.90
13686;DHT22;6915;48.296;8.874;2023-05-03T12:02:37;16.80;99.90
13686;DHT22;6915;48.296;8.874;2023-05-03T12:05:07;16.90;99.90
13686;DHT22;6915;48.296;8.874;2023-05-03T12:07:37;16.40;99.90
13686;DHT22;6915;48.296;8.874;2023-05-03T12:10:16;16.20;99.90
13686;DHT22;6915;48.296;8.874;2023-05-03T12:13:00;16.40;99.90
13686;DHT22;6915;48.296;8.874;2023-05-03T12:15:30;16.80;99.90
13686;DHT22;6915;48.296;8.874;2023-05-03T12:18:00;16.50;99.90
13686;DHT22;6915;48.296;8.874;2023-05-03T12:20:30;16.60;99.90
13686;DHT22;6915;48.296;8.874;2023-05-03T12:23:01;16.90;99.90
13686;DHT22;6915;48.296;8.874;2023-05-03T12:25:31;17.20;99.90
13686;DHT22;6915;48.296;8.874;2023-05-03T12:28:03;17.40;99.90
13686;DHT22;6915;48.296;8.874;2023-05-03T12:30:34;17.50;99.90
13686;DHT22;6915;48.296;8.874;2023-05-03T12:33:03;17.70;99.90
13686;DHT22;6915;48.296;8.874;2023-05-03T12:35:31;17.30;99.90
13686;DHT22;6915;48.296;8.874;2023-05-03T12:38:00;17.20;99.90
13686;DHT22;6915;48.296;8.874;2023-05-03T12:40:30;16.90;99.90
13686;DHT22;6915;48.296;8.874;2023-05-03T12:42:59;17.20;1.00
13686;DHT22;6915;48.296;8.874;2023-05-03T12:45:30;17.20;99.90
13686;DHT22;6915;48.296;8.874;2023-05-03T12:48:00;17.50;99.90
13686;DHT22;6915;48.296;8.874;2023-05-03T12:50:30;17.90;99.90
13686;DHT22;6915;48.296;8.874;2023-05-03T12:53:00;18.00;99.90
13686;DHT22;6915;48.296;8.874;2023-05-03T12:55:29;17.90;99.90
13686;DHT22;6915;48.296;8.874;2023-05-03T12:58:01;17.60;99.90
13686;DHT22;6915;48.296;8.874;2023-05-03T13:00:33;17.60;99.90
13686;DHT22;6915;48.296;8.874;2023-05-03T13:03:03;17.40;99.90
13686;DHT22;6915;48.296;8.874;2023-05-03T13:05:32;17.50;99.90
13686;DHT22;6915;48.296;8.874;2023-05-03T13:08:01;17.60;99.90
13686;DHT22;6915;48.296;8.874;2023-05-03T13:10:31;17.80;99.90
13686;DHT22;6915;48.296;8.874;2023-05-03T13:13:00;18.00;1.00
13686;DHT22;6915;48.296;8.874;2023-05-03T13:15:34;18.00;1.00
13686;DHT22;6915;48.296;8.874;2023-05-03T13:18:04;17.80;1.00
13686;DHT22;6915;48.296;8.874;2023-05-03T13:20:33;17.30;1.00
13686;DHT22;6915;48.296;8.874;2023-05-03T13:23:02;17.40;99.90
13686;DHT22;6915;48.296;8.874;2023-05-03T13:25:31;17.90;99.90
13686;DHT22;6915;48.296;8.874;2023-05-03T13:28:01;17.80;99.90
13686;DHT22;6915;48.296;8.874;2023-05-03T13:30:30;18.00;1.00
13686;DHT22;6915;48.296;8.874;2023-05-03T13:33:00;18.00;99.90
13686;DHT22;6915;48.296;8.874;2023-05-03T13:35:29;18.10;1.00
13686;DHT22;6915;48.296;8.874;2023-05-03T13:38:01;18.10;1.00
13686;DHT22;6915;48.296;8.874;2023-05-03T13:40:30;18.10;1.00
13686;DHT22;6915;48.296;8.874;2023-05-03T13:42:59;18.30;1.00
13686;DHT22;6915;48.296;8.874;2023-05-03T13:45:28;17.90;1.00
13686;DHT22;6915;48.296;8.874;2023-05-03T13:47:58;17.80;99.90
13686;DHT22;6915;48.296;8.874;2023-05-03T13:50:29;18.20;1.00
13686;DHT22;6915;48.296;8.874;2023-05-03T13:52:58;18.60;1.00
13686;DHT22;6915;48.296;8.874;2023-05-03T13:55:28;18.70;99.90
13686;DHT22;6915;48.296;8.874;2023-05-03T13:57:58;18.60;99.90
13686;DHT22;6915;48.296;8.874;2023-05-03T14:00:27;18.80;99.90
13686;DHT22;6915;48.296;8.874;2023-05-03T14:02:57;18.50;99.90
13686;DHT22;6915;48.296;8.874;2023-05-03T14:05:26;18.60;99.90
13686;DHT22;6915;48.296;8.874;2023-05-03T14:07:55;18.30;99.90
13686;DHT22;6915;48.296;8.874;2023-05-03T14:10:24;18.20;99.90
13686;DHT22;6915;48.296;8.874;2023-05-03T14:12:54;18.50;99.90
13686;DHT22;6915;48.296;8.874;2023-05-03T14:15:24;18.70;99.90
13686;DHT22;6915;48.296;8.874;2023-05-03T14:17:53;18.50;99.90
13686;DHT22;6915;48.296;8.874;2023-05-03T14:20:23;18.80;99.90
13686;DHT22;6915;48.296;8.874;2023-05-03T14:22:52;18.90;99.90
13686;DHT22;6915;48.296;8.874;2023-05-03T14:25:22;19.00;99.90
13686;DHT22;6915;48.296;8.874;2023-05-03T14:27:51;18.70;99.90
13686;DHT22;6915;48.296;8.874;2023-05-03T14:30:20;18.60;99.90
13686;DHT22;6915;48.296;8.874;2023-05-03T14:32:52;18.60;99.90
13686;DHT22;6915;48.296;8.874;2023-05-03T14:35:20;18.50;99.90
13686;DHT22;6915;48.296;8.874;2023-05-03T14:37:50;18.60;99.90
13686;DHT22;6915;48.296;8.874;2023-05-03T14:40:20;18.70;99.90
13686;DHT22;6915;48.296;8.874;2023-05-03T14:42:49;18.50;99.90
13686;DHT22;6915;48.296;8.874;2023-05-03T14:45:18;18.60;99.90
13686;DHT22;6915;48.296;8.874;2023-05-03T14:47:47;18.60;99.90
13686;DHT22;6915;48.296;8.874;2023-05-03T14:50:15;18.60;99.90
13686;DHT22;6915;48.296;8.874;2023-05-03T14:58:26;18.50;99.90
13686;DHT22;6915;48.296;8.874;2023-05-03T15:00:55;18.50;99.90
13686;DHT22;6915;48.296;8.874;2023-05-03T15:03:26;18.30;99.90
13686;DHT22;6915;48.296;8.874;2023-05-03T15:05:55;18.50;99.90
13686;DHT22;6915;48.296;8.874;2023-05-03T15:08:24;18.80;99.90
13686;DHT22;6915;48.296;8.874;2023-05-03T16:51:53;17.20;99.90
13686;DHT22;6915;48.296;8.874;2023-05-03T16:54:23;17.20;99.90
13686;DHT22;6915;48.296;8.874;2023-05-03T16:56:53;17.20;99.90
13686;DHT22;6915;48.296;8.874;2023-05-03T16:59:22;17.40;99.90
13686;DHT22;6915;48.296;8.874;2023-05-03T17:01:52;17.20;99.90
13686;DHT22;6915;48.296;8.874;2023-05-03T17:06:49;17.10;99.90
13686;DHT22;6915;48.296;8.874;2023-05-03T17:09:20;17.10;99.90
13686;DHT22;6915;48.296;8.874;2023-05-03T17:11:49;16.90;99.90
13686;DHT22;6915;48.296;8.874;2023-05-03T17:14:19;16.90;99.90
13686;DHT22;6915;48.296;8.874;2023-05-03T17:16:49;16.80;99.90
13686;DHT22;6915;48.296;8.874;2023-05-03T17:19:18;16.70;99.90
13686;DHT22;6915;48.296;8.874;2023-05-03T17:21:47;16.80;99.90
13686;DHT22;6915;48.296;8.874;2023-05-03T21:12:05;9.20;99.90
13686;DHT22;6915;48.296;8.874;2023-05-03T21:14:35;9.10;99.90
13686;DHT22;6915;48.296;8.874;2023-05-03T21:17:04;8.80;99.90
13686;DHT22;6915;48.296;8.874;2023-05-03T21:19:35;9.00;99.90
13686;DHT22;6915;48.296;8.874;2023-05-03T21:22:03;8.80;99.90
13686;DHT22;6915;48.296;8.874;2023-05-03T21:24:34;9.00;99.90
13686;DHT22;6915;48.296;8.874;2023-05-03T21:27:03;8.80;99.90
13686;DHT22;6915;48.296;8.874;2023-05-03T21:29:33;8.80;99.90
13686;DHT22;6915;48.296;8.874;2023-05-03T21:32:02;8.60;99.90
13686;DHT22;6915;48.296;8.874;2023-05-03T21:34:30;8.50;99.90
13686;DHT22;6915;48.296;8.874;2023-05-03T21:36:59;8.40;99.90
13686;DHT22;6915;48.296;8.874;2023-05-03T21:39:28;8.40;99.90
13686;DHT22;6915;48.296;8.874;2023-05-03T21:41:56;8.30;99.90
13686;DHT22;6915;48.296;8.874;2023-05-03T21:44:25;8.30;99.90
13686;DHT22;6915;48.296;8.874;2023-05-03T21:46:55;8.20;99.90
13686;DHT22;6915;48.296;8.874;2023-05-03T21:49:24;8.30;99.90
13686;DHT22;6915;48.296;8.874;2023-05-03T21:51:53;8.10;99.90
13686;DHT22;6915;48.296;8.874;2023-05-03T21:54:22;8.10;99.90
13686;DHT22;6915;48.296;8.874;2023-05-03T21:56:50;8.10;99.90
13686;DHT22;6915;48.296;8.874;2023-05-03T21:59:19;8.10;99.90
13686;DHT22;6915;48.296;8.874;2023-05-03T22:01:48;8.00;99.90
13686;DHT22;6915;48.296;8.874;2023-05-03T22:04:19;8.00;99.90
13686;DHT22;6915;48.296;8.874;2023-05-03T22:06:48;8.00;99.90
13686;DHT22;6915;48.296;8.874;2023-05-03T22:09:16;8.00;99.90
13686;DHT22;6915;48.296;8.874;2023-05-03T22:11:47;7.90;99.90
13686;DHT22;6915;48.296;8.874;2023-05-03T22:14:15;7.70;99.90
13686;DHT22;6915;48.296;8.874;2023-05-03T22:16:44;7.50;99.90
13686;DHT22;6915;48.296;8.874;2023-05-03T22:19:13;7.50;99.90
13686;DHT22;6915;48.296;8.874;2023-05-03T22:21:43;7.50;99.90
13686;DHT22;6915;48.296;8.874;2023-05-03T22:24:11;7.30;99.90
13686;DHT22;6915;48.296;8.874;2023-05-03T22:26:40;7.40;99.90
13686;DHT22;6915;48.296;8.874;2023-05-03T22:29:08;7.40;99.90
13686;DHT22;6915;48.296;8.874;2023-05-03T22:31:37;7.50;99.90
13686;DHT22;6915;48.296;8.874;2023-05-03T22:34:06;7.50;99.90
13686;DHT22;6915;48.296;8.874;2023-05-03T22:36:35;7.50;99.90
13686;DHT22;6915;48.296;8.874;2023-05-03T22:39:05;7.20;99.90
13686;DHT22;6915;48.296;8.874;2023-05-03T22:41:34;7.30;99.90
13686;DHT22;6915;48.296;8.874;2023-05-03T22:44:03;7.20;99.90
13686;DHT22;6915;48.296;8.874;2023-05-03T22:46:32;7.30;99.90
13686;DHT22;6915;48.296;8.874;2023-05-03T22:49:00;7.30;99.90
13686;DHT22;6915;48.296;8.874;2023-05-03T22:51:29;7.30;99.90
13686;DHT22;6915;48.296;8.874;2023-05-03T22:53:58;7.30;99.90
13686;DHT22;6915;48.296;8.874;2023-05-03T22:56:31;7.40;99.90
13686;DHT22;6915;48.296;8.874;2023-05-03T22:59:00;7.30;99.90
13686;DHT22;6915;48.296;8.874;2023-05-03T23:01:29;7.30;99.90
13686;DHT22;6915;48.296;8.874;2023-05-03T23:03:58;7.20;99.90
13686;DHT22;6915;48.296;8.874;2023-05-03T23:06:26;7.20;99.90
13686;DHT22;6915;48.296;8.874;2023-05-03T23:08:55;7.20;99.90
13686;DHT22;6915;48.296;8.874;2023-05-03T23:11:24;7.30;99.90
13686;DHT22;6915;48.296;8.874;2023-05-03T23:13:54;7.30;99.90
13686;DHT22;6915;48.296;8.874;2023-05-03T23:16:23;7.30;99.90
13686;DHT22;6915;48.296;8.874;2023-05-03T23:18:51;7.20;99.90
13686;DHT22;6915;48.296;8.874;2023-05-03T23:21:29;7.30;99.90
13686;DHT22;6915;48.296;8.874;2023-05-03T23:24:01;7.00;99.90
13686;DHT22;6915;48.296;8.874;2023-05-03T23:26:30;7.00;99.90
13686;DHT22;6915;48.296;8.874;2023-05-03T23:29:00;6.80;99.90
13686;DHT22;6915;48.296;8.874;2023-05-03T23:31:33;6.90;99.90
13686;DHT22;6915;48.296;8.874;2023-05-03T23:34:01;6.80;99.90
13686;DHT22;6915;48.296;8.874;2023-05-03T23:36:31;6.80;99.90
13686;DHT22;6915;48.296;8.874;2023-05-03T23:39:00;6.80;99.90
13686;DHT22;6915;48.296;8.874;2023-05-03T23:41:29;6.70;99.90
13686;DHT22;6915;48.296;8.874;2023-05-03T23:43:57;6.70;99.90
13686;DHT22;6915;48.296;8.874;2023-05-03T23:46:27;6.70;99.90
13686;DHT22;6915;48.296;8.874;2023-05-03T23:48:56;6.60;99.90
13686;DHT22;6915;48.296;8.874;2023-05-03T23:51:26;6.60;99.90
13686;DHT22;6915;48.296;8.874;2023-05-03T23:53:56;6.50;99.90
13686;DHT22;6915;48.296;8.874;2023-05-03T23:56:25;6.50;99.90
13686;DHT22;6915;48.296;8.874;2023-05-03T23:58:56;6.60;99.90
